Archival Weather

Aeroparque Jorge Newbery

Aeroparque Jorge Newbery, Argentina (SABE)

Report from: Saturday, May 14, 2022 10:00 AM -03
Current time: Sunday, June 26, 2022 1:54 PM -03

Current weather
Weather history
Weather forecast

Temperature16.0°C (60.8°F)
Dew point12.0°C (53.6°F)
Winds 6 kts (3.1 m/s, 6.9 mph) Vrb
Winds variableWinds variable from Southeast (130°) to South-Southwest (210°)
Visibility6.2 mi. (10 km)
Clouds Scattered clouds 1,200 ft. (366 m)
Altimeter30.09 in.Hg (1019 mB)
Relative humidity77 %
Density altitude120 ft. (37 m)
Remarks Corrected report
No significant changes expected in the next two hours
Flight conditions Visual Meteorological Conditions
Raw dataCOR SABE 141300Z 16006KT 130V210 9999 SCT012 16/12 Q1019 NOSIG RMK PP000
An error has occurred. This application may no longer respond until reloaded. Reload 🗙